createdAt,value
2017-09-20T00:01:55.058Z,7.10
2017-09-20T00:04:22.997Z,7.00
2017-09-20T00:06:50.578Z,7.00
2017-09-20T00:09:18.162Z,7.00
2017-09-20T00:11:46.538Z,7.00
2017-09-20T00:14:14.886Z,7.00
2017-09-20T00:16:42.495Z,7.00
2017-09-20T00:19:10.069Z,6.90
2017-09-20T00:21:37.966Z,6.90
2017-09-20T00:24:05.538Z,6.80
2017-09-20T00:26:33.139Z,6.80
2017-09-20T00:29:00.743Z,6.80
2017-09-20T00:31:28.318Z,6.80
2017-09-20T00:33:55.906Z,6.70
2017-09-20T00:36:23.501Z,6.70
2017-09-20T00:38:51.374Z,6.60
2017-09-20T00:41:18.920Z,6.70
2017-09-20T00:43:46.508Z,6.70
2017-09-20T00:46:14.106Z,6.70
2017-09-20T00:48:42.455Z,6.60
2017-09-20T00:51:10.044Z,6.60
2017-09-20T00:53:38.406Z,6.60
2017-09-20T00:56:05.987Z,6.60
2017-09-20T00:58:34.333Z,6.60
2017-09-20T01:01:01.922Z,6.60
2017-09-20T01:03:29.494Z,6.60
2017-09-20T01:05:57.393Z,6.60
2017-09-20T01:08:24.974Z,6.70
2017-09-20T01:10:52.578Z,6.70
2017-09-20T01:13:20.182Z,6.70
2017-09-20T01:15:47.755Z,6.70
2017-09-20T01:18:15.352Z,6.70
2017-09-20T01:20:54.742Z,6.70
2017-09-20T01:23:37.340Z,6.70
2017-09-20T01:26:04.938Z,6.60
2017-09-20T01:28:33.269Z,6.60
2017-09-20T01:31:00.898Z,6.60
2017-09-20T01:33:28.470Z,6.60
2017-09-20T01:35:56.069Z,6.60
2017-09-20T01:38:23.622Z,6.60
2017-09-20T01:40:51.219Z,6.60
2017-09-20T01:43:19.946Z,6.50
2017-09-20T01:45:47.834Z,6.50
2017-09-20T01:48:15.438Z,6.50
2017-09-20T01:50:43.026Z,6.50
2017-09-20T01:53:10.630Z,6.50
2017-09-20T01:55:38.203Z,6.50
2017-09-20T01:58:06.853Z,6.40
2017-09-20T02:00:34.439Z,6.40
2017-09-20T02:03:02.021Z,6.40
2017-09-20T02:05:29.627Z,6.30
2017-09-20T02:07:57.214Z,6.30
2017-09-20T02:10:25.586Z,6.30
2017-09-20T02:12:53.161Z,6.30
2017-09-20T02:15:21.176Z,6.30
2017-09-20T02:17:48.750Z,6.30
2017-09-20T02:20:17.088Z,6.20
2017-09-20T02:22:44.776Z,6.20
2017-09-20T02:25:12.348Z,6.20
2017-09-20T02:27:39.958Z,6.20
2017-09-20T02:30:08.318Z,6.30
2017-09-20T02:32:36.186Z,6.20
2017-09-20T02:35:03.780Z,6.20
2017-09-20T02:37:31.467Z,6.20
2017-09-20T02:39:59.835Z,6.30
2017-09-20T02:42:27.415Z,6.30
2017-09-20T02:44:55.027Z,6.30
2017-09-20T02:47:22.615Z,6.40
2017-09-20T02:49:50.509Z,6.40
2017-09-20T02:52:18.990Z,6.40
2017-09-20T02:54:46.571Z,6.50
2017-09-20T02:57:14.166Z,6.50
2017-09-20T02:59:41.749Z,6.50
2017-09-20T03:02:09.366Z,6.50
2017-09-20T03:04:37.797Z,6.50
2017-09-20T03:07:05.386Z,6.50
2017-09-20T03:09:33.023Z,6.60
2017-09-20T03:12:00.899Z,6.60
2017-09-20T03:14:28.483Z,6.50
2017-09-20T03:16:56.086Z,6.50
2017-09-20T03:19:23.706Z,6.40
2017-09-20T03:21:52.063Z,6.30
2017-09-20T03:24:19.666Z,6.30
2017-09-20T03:26:47.246Z,6.50
2017-09-20T03:29:15.094Z,6.50
2017-09-20T03:31:42.667Z,6.70
2017-09-20T03:34:10.251Z,6.70
2017-09-20T03:36:37.859Z,6.70
2017-09-20T03:39:06.231Z,6.70
2017-09-20T03:41:34.618Z,6.70
2017-09-20T03:44:02.996Z,6.60
2017-09-20T03:46:31.366Z,6.60
2017-09-20T03:48:59.715Z,6.50
2017-09-20T03:51:27.674Z,6.50
2017-09-20T03:53:56.010Z,6.50
2017-09-20T03:56:23.606Z,6.50
2017-09-20T03:58:51.210Z,6.50
2017-09-20T04:01:19.559Z,6.70
2017-09-20T04:03:47.512Z,6.70
2017-09-20T04:06:15.095Z,6.70
2017-09-20T04:08:42.675Z,6.80
2017-09-20T04:11:11.031Z,6.80
2017-09-20T04:13:38.613Z,6.70
2017-09-20T04:16:07.360Z,6.90
2017-09-20T04:18:34.949Z,6.80
2017-09-20T04:21:02.539Z,6.90
2017-09-20T04:23:30.147Z,7.00
2017-09-20T04:25:57.782Z,7.00
2017-09-20T04:28:25.378Z,6.90
2017-09-20T04:30:52.975Z,7.00
2017-09-20T04:33:20.594Z,7.00
2017-09-20T04:35:48.178Z,7.00
2017-09-20T04:38:16.790Z,7.10
2017-09-20T04:40:44.357Z,7.10
2017-09-20T04:43:11.952Z,7.20
2017-09-20T04:45:39.545Z,7.20
2017-09-20T04:48:07.898Z,7.30
2017-09-20T04:50:36.306Z,7.40
2017-09-20T04:53:03.895Z,7.40
2017-09-20T04:55:31.786Z,7.50
2017-09-20T04:57:59.383Z,7.50
2017-09-20T05:00:27.745Z,7.40
2017-09-20T05:02:55.415Z,7.40
2017-09-20T05:05:23.763Z,7.50
2017-09-20T05:07:51.381Z,7.50
2017-09-20T05:10:19.016Z,7.50
2017-09-20T05:12:46.847Z,7.60
2017-09-20T05:15:14.456Z,7.70
2017-09-20T05:17:42.787Z,7.70
2017-09-20T05:20:10.407Z,7.70
2017-09-20T05:22:38.014Z,7.90
2017-09-20T05:25:05.853Z,8.00
2017-09-20T05:27:33.444Z,7.80
2017-09-20T05:30:01.051Z,7.70
2017-09-20T05:32:28.695Z,7.80
2017-09-20T05:34:57.047Z,8.10
2017-09-20T05:37:25.075Z,8.10
2017-09-20T05:39:52.787Z,8.10
2017-09-20T05:42:20.370Z,8.20
2017-09-20T05:44:48.731Z,8.20
2017-09-20T05:47:16.331Z,8.10
2017-09-20T05:49:44.336Z,8.20
2017-09-20T05:52:11.958Z,8.20
2017-09-20T05:54:39.662Z,8.40
2017-09-20T05:57:08.069Z,8.30
2017-09-20T05:59:36.486Z,8.20
2017-09-20T06:02:04.593Z,8.20
2017-09-20T06:04:32.181Z,8.10
2017-09-20T06:07:00.523Z,8.00
2017-09-20T06:09:28.117Z,8.00
2017-09-20T06:11:55.703Z,8.10
2017-09-20T06:14:23.310Z,8.10
2017-09-20T06:16:50.892Z,8.00
2017-09-20T06:19:19.517Z,8.10
2017-09-20T06:21:47.112Z,8.10
2017-09-20T06:24:14.701Z,8.10
2017-09-20T06:26:43.120Z,8.40
2017-09-20T06:29:10.690Z,8.40
2017-09-20T06:31:38.286Z,8.40
2017-09-20T06:34:05.896Z,8.40
2017-09-20T06:36:33.865Z,8.40
2017-09-20T06:39:01.435Z,8.50
2017-09-20T06:41:29.050Z,8.50
2017-09-20T06:43:57.454Z,8.70
2017-09-20T06:46:25.050Z,8.70
2017-09-20T06:48:52.666Z,8.70
2017-09-20T06:51:20.246Z,8.80
2017-09-20T06:53:48.137Z,8.80
2017-09-20T06:56:15.730Z,8.90
2017-09-20T06:58:44.074Z,9.00
2017-09-20T07:01:11.671Z,9.00
2017-09-20T07:03:40.017Z,9.10
2017-09-20T07:06:07.699Z,9.10
2017-09-20T07:08:35.292Z,9.20
2017-09-20T07:11:03.319Z,9.50
2017-09-20T07:13:30.914Z,9.60
2017-09-20T07:15:59.313Z,9.50
2017-09-20T07:18:26.986Z,9.50
2017-09-20T07:20:54.631Z,9.50
2017-09-20T07:23:22.242Z,9.70
2017-09-20T07:25:49.832Z,9.80
2017-09-20T07:28:18.455Z,9.80
2017-09-20T07:30:46.628Z,9.70
2017-09-20T07:33:14.220Z,10.00
2017-09-20T07:35:41.823Z,10.00
2017-09-20T07:38:09.399Z,10.10
2017-09-20T07:40:37.001Z,10.30
2017-09-20T07:43:04.595Z,10.30
2017-09-20T07:45:32.514Z,10.00
2017-09-20T07:48:00.289Z,10.10
2017-09-20T07:50:27.902Z,10.20
2017-09-20T07:52:55.542Z,10.40
2017-09-20T07:55:23.906Z,10.50
2017-09-20T07:57:52.273Z,10.60
2017-09-20T08:00:19.891Z,10.60
2017-09-20T08:02:47.783Z,10.80
2017-09-20T08:05:15.373Z,10.80
2017-09-20T08:07:43.733Z,11.00
2017-09-20T08:10:12.290Z,11.00
2017-09-20T08:12:40.036Z,11.00
2017-09-20T08:15:07.713Z,10.90
2017-09-20T08:17:35.289Z,10.90
2017-09-20T08:20:03.262Z,11.10
2017-09-20T08:22:30.885Z,11.10
2017-09-20T08:24:58.550Z,11.40
2017-09-20T08:27:26.155Z,11.50
2017-09-20T08:29:53.738Z,11.50
2017-09-20T08:32:21.342Z,11.40
2017-09-20T08:34:49.838Z,11.70
2017-09-20T08:37:17.873Z,11.80
2017-09-20T08:39:45.456Z,11.80
2017-09-20T08:42:13.031Z,12.10
2017-09-20T08:44:40.667Z,11.90
2017-09-20T08:47:08.283Z,11.80
2017-09-20T08:49:36.664Z,11.90
2017-09-20T08:52:04.986Z,12.20
2017-09-20T08:54:32.862Z,12.20
2017-09-20T08:57:00.446Z,12.30
2017-09-20T08:59:28.052Z,12.40
2017-09-20T09:01:55.653Z,12.20
2017-09-20T09:04:23.248Z,12.30
2017-09-20T09:06:50.893Z,12.10
2017-09-20T09:09:19.231Z,11.90
2017-09-20T09:11:46.851Z,11.80
2017-09-20T09:14:14.437Z,11.70
2017-09-20T09:16:42.093Z,11.80
2017-09-20T09:19:09.671Z,11.80
2017-09-20T09:21:37.635Z,11.70
2017-09-20T09:24:05.281Z,11.80
2017-09-20T09:26:32.867Z,11.90
2017-09-20T09:29:00.486Z,12.00
2017-09-20T09:31:28.104Z,12.10
2017-09-20T09:33:55.716Z,12.20
2017-09-20T09:36:23.610Z,12.30
2017-09-20T09:38:51.198Z,12.10
2017-09-20T09:41:18.782Z,12.20
2017-09-20T09:43:47.158Z,12.50
2017-09-20T09:46:15.567Z,12.70
2017-09-20T09:48:43.181Z,12.70
2017-09-20T09:51:10.762Z,12.80
2017-09-20T09:53:39.391Z,13.00
2017-09-20T09:56:06.982Z,13.00
2017-09-20T09:58:34.694Z,12.90
2017-09-20T10:01:02.329Z,12.90
2017-09-20T10:03:30.218Z,13.10
2017-09-20T10:05:57.798Z,13.00
2017-09-20T10:08:25.394Z,13.00
2017-09-20T10:10:54.259Z,12.90
2017-09-20T10:13:21.854Z,12.90
2017-09-20T10:15:50.211Z,12.90
2017-09-20T10:18:17.836Z,12.90
2017-09-20T10:20:45.407Z,12.90
2017-09-20T10:23:13.244Z,13.00
2017-09-20T10:25:40.875Z,13.20
2017-09-20T10:28:09.543Z,13.40
2017-09-20T10:30:37.139Z,13.30
2017-09-20T10:33:04.724Z,13.40
2017-09-20T10:35:32.346Z,13.50
2017-09-20T10:38:00.699Z,13.60
2017-09-20T10:40:28.416Z,13.60
2017-09-20T10:42:56.021Z,13.60
2017-09-20T10:45:24.167Z,13.70
2017-09-20T10:47:52.063Z,13.60
2017-09-20T10:50:19.673Z,13.70
2017-09-20T10:52:47.293Z,13.80
2017-09-20T10:55:14.907Z,13.90
2017-09-20T10:57:42.567Z,14.00
2017-09-20T11:00:10.165Z,14.00
2017-09-20T11:02:38.162Z,13.90
2017-09-20T11:05:06.551Z,13.90
2017-09-20T11:07:35.457Z,14.20
2017-09-20T11:10:04.658Z,13.80
2017-09-20T11:12:33.080Z,13.70
2017-09-20T11:15:00.683Z,13.70
2017-09-20T11:17:28.382Z,13.80
2017-09-20T11:19:56.372Z,13.40
2017-09-20T11:22:23.963Z,13.40
2017-09-20T11:24:51.599Z,13.50
2017-09-20T11:27:19.232Z,13.60
2017-09-20T11:29:46.827Z,13.60
2017-09-20T11:32:15.195Z,13.50
2017-09-20T11:34:42.778Z,13.50
2017-09-20T11:37:11.425Z,13.80
2017-09-20T11:39:38.999Z,13.80
2017-09-20T11:42:06.601Z,13.90
2017-09-20T11:44:34.376Z,14.20
2017-09-20T11:47:01.959Z,14.30
2017-09-20T11:49:29.577Z,14.50
2017-09-20T11:51:57.186Z,14.50
2017-09-20T11:54:25.140Z,14.40
2017-09-20T11:56:52.739Z,14.20
2017-09-20T11:59:21.122Z,14.10
2017-09-20T12:01:49.520Z,14.10
2017-09-20T12:04:17.198Z,14.10
2017-09-20T12:06:44.844Z,14.30
2017-09-20T12:09:12.465Z,14.40
2017-09-20T12:11:40.322Z,14.50
2017-09-20T12:14:07.896Z,14.60
2017-09-20T12:16:35.982Z,14.80
2017-09-20T12:19:04.397Z,15.20
2017-09-20T12:21:31.973Z,15.20
2017-09-20T12:23:59.892Z,15.60
2017-09-20T12:26:28.421Z,15.70
2017-09-20T12:28:56.010Z,15.70
2017-09-20T12:31:23.612Z,15.50
2017-09-20T12:33:51.241Z,15.80
2017-09-20T12:36:19.999Z,16.20
2017-09-20T12:38:47.604Z,16.20
2017-09-20T12:41:15.191Z,16.40
2017-09-20T12:43:42.803Z,16.10
2017-09-20T12:46:10.382Z,16.00
2017-09-20T12:48:38.780Z,15.70
2017-09-20T12:51:06.408Z,15.70
2017-09-20T12:53:35.240Z,17.70
2017-09-20T12:56:02.864Z,17.70
2017-09-20T12:58:30.449Z,18.20
2017-09-20T13:00:58.059Z,17.20
2017-09-20T13:03:25.662Z,16.80
2017-09-20T13:05:53.578Z,17.40
2017-09-20T13:08:21.261Z,19.10
2017-09-20T13:10:49.636Z,22.50
2017-09-20T13:13:17.230Z,22.40
2017-09-20T13:15:44.816Z,22.20
2017-09-20T13:18:12.700Z,21.80
2017-09-20T13:20:40.286Z,21.50
2017-09-20T13:23:07.911Z,21.50
2017-09-20T13:25:35.513Z,21.20
2017-09-20T13:28:03.895Z,21.10
2017-09-20T13:30:31.802Z,21.10
2017-09-20T13:32:59.426Z,21.10
2017-09-20T13:35:28.077Z,21.20
2017-09-20T13:37:55.686Z,21.20
2017-09-20T13:40:23.296Z,21.50
2017-09-20T13:42:50.923Z,21.30
2017-09-20T13:45:18.522Z,21.00
2017-09-20T13:47:46.129Z,20.00
2017-09-20T13:50:13.706Z,20.10
2017-09-20T13:52:41.598Z,19.80
2017-09-20T13:55:09.186Z,19.60
2017-09-20T13:57:37.551Z,19.30
2017-09-20T14:00:05.142Z,19.20
2017-09-20T14:02:32.751Z,19.10
2017-09-20T14:05:00.359Z,18.90
2017-09-20T14:07:28.717Z,18.20
2017-09-20T14:09:56.667Z,18.20
2017-09-20T14:12:24.215Z,18.20
2017-09-20T14:14:53.406Z,18.00
2017-09-20T14:17:21.090Z,17.90
2017-09-20T14:19:48.703Z,18.00
2017-09-20T14:22:16.307Z,18.10
2017-09-20T14:24:43.908Z,18.00
2017-09-20T14:27:12.635Z,17.70
2017-09-20T14:29:40.219Z,17.60
2017-09-20T14:32:07.966Z,17.20
2017-09-20T14:34:35.604Z,17.10
2017-09-20T14:37:03.202Z,17.20
2017-09-20T14:39:30.832Z,17.30
2017-09-20T14:41:58.418Z,17.60
2017-09-20T14:44:26.371Z,17.60
2017-09-20T14:46:53.985Z,17.50
2017-09-20T14:49:22.420Z,17.30
2017-09-20T14:51:50.023Z,17.30
2017-09-20T14:54:18.396Z,17.30
2017-09-20T14:56:47.137Z,17.20
2017-09-20T14:59:14.742Z,17.20
2017-09-20T15:01:43.070Z,17.00
2017-09-20T15:04:10.679Z,17.00
2017-09-20T15:06:39.051Z,17.00
2017-09-20T15:09:11.481Z,16.60
2017-09-20T15:11:39.846Z,16.40
2017-09-20T15:14:07.439Z,16.40
2017-09-20T15:16:35.021Z,16.40
2017-09-20T15:19:03.674Z,16.10
2017-09-20T15:21:31.329Z,16.10
2017-09-20T15:23:58.952Z,16.10
2017-09-20T15:26:26.546Z,16.20
2017-09-20T15:28:54.146Z,16.20
2017-09-20T15:31:22.879Z,16.00
2017-09-20T15:33:50.490Z,16.00
2017-09-20T15:36:18.887Z,16.10
2017-09-20T15:38:47.273Z,16.20
2017-09-20T15:41:14.859Z,16.20
2017-09-20T15:43:42.690Z,16.10
2017-09-20T15:46:11.082Z,16.20
2017-09-20T15:48:38.768Z,16.20
2017-09-20T15:51:06.391Z,16.30
2017-09-20T15:53:33.987Z,16.30
2017-09-20T15:56:01.764Z,16.20
2017-09-20T15:58:29.411Z,16.20
2017-09-20T16:00:56.995Z,16.10
2017-09-20T16:03:24.624Z,16.10
2017-09-20T16:05:52.297Z,16.00
2017-09-20T16:08:19.911Z,15.90
2017-09-20T16:10:48.296Z,15.70
2017-09-20T16:13:16.666Z,15.70
2017-09-20T16:15:45.058Z,15.70
2017-09-20T16:18:12.682Z,15.70
2017-09-20T16:20:40.378Z,15.70
2017-09-20T16:23:08.003Z,15.60
2017-09-20T16:25:35.567Z,15.60
2017-09-20T16:28:03.193Z,15.60
2017-09-20T16:30:30.883Z,15.80
2017-09-20T16:32:58.481Z,15.70
2017-09-20T16:35:27.002Z,15.70
2017-09-20T16:37:54.642Z,15.40
2017-09-20T16:40:22.235Z,15.50
2017-09-20T16:42:49.842Z,15.50
2017-09-20T16:45:17.489Z,15.40
2017-09-20T16:47:45.908Z,15.20
2017-09-20T16:50:13.667Z,15.10
2017-09-20T16:52:41.270Z,15.10
2017-09-20T16:55:08.864Z,14.90
2017-09-20T16:57:37.251Z,14.70
2017-09-20T17:00:04.966Z,14.70
2017-09-20T17:02:32.579Z,14.60
2017-09-20T17:05:00.226Z,14.50
2017-09-20T17:07:28.595Z,14.20
2017-09-20T17:09:56.995Z,14.00
2017-09-20T17:12:24.763Z,14.00
2017-09-20T17:14:52.374Z,13.90
2017-09-20T17:17:20.777Z,13.60
2017-09-20T17:19:49.169Z,13.40
2017-09-20T17:22:16.831Z,13.40
2017-09-20T17:24:44.496Z,13.40
2017-09-20T17:27:12.107Z,13.30
2017-09-20T17:29:40.089Z,13.20
2017-09-20T17:32:07.712Z,13.10
2017-09-20T17:34:35.328Z,12.90
2017-09-20T17:37:02.970Z,12.80
2017-09-20T17:39:31.374Z,12.50
2017-09-20T17:42:00.119Z,12.30
2017-09-20T17:44:27.712Z,12.30
2017-09-20T17:46:56.093Z,12.10
2017-09-20T17:49:24.534Z,12.10
2017-09-20T17:51:52.147Z,12.10
2017-09-20T17:54:20.068Z,12.30
2017-09-20T17:56:47.661Z,12.40
2017-09-20T17:59:15.383Z,12.50
2017-09-20T18:01:43.116Z,12.30
2017-09-20T18:04:10.691Z,12.20
2017-09-20T18:06:38.349Z,12.00
2017-09-20T18:09:06.005Z,11.90
2017-09-20T18:11:33.897Z,11.80
2017-09-20T18:14:01.497Z,11.60
2017-09-20T18:16:29.870Z,11.30
2017-09-20T18:18:58.260Z,11.20
2017-09-20T18:21:25.886Z,11.20
2017-09-20T18:23:54.583Z,11.00
2017-09-20T18:26:22.185Z,11.00
2017-09-20T18:28:49.767Z,10.90
2017-09-20T18:31:17.403Z,10.80
2017-09-20T18:33:45.012Z,10.70
2017-09-20T18:36:12.620Z,10.60
2017-09-20T18:38:40.333Z,10.50
2017-09-20T18:41:08.595Z,10.40
2017-09-20T18:43:36.568Z,10.30
2017-09-20T18:46:04.239Z,10.30
2017-09-20T18:48:31.867Z,10.40
2017-09-20T18:50:59.537Z,10.30
2017-09-20T18:53:27.566Z,10.20
2017-09-20T18:55:55.959Z,10.00
2017-09-20T18:58:23.574Z,10.00
2017-09-20T19:00:52.032Z,10.00
2017-09-20T19:03:19.674Z,9.90
2017-09-20T19:05:47.333Z,9.90
2017-09-20T19:08:14.997Z,10.00
2017-09-20T19:10:42.612Z,10.10
2017-09-20T19:13:11.024Z,9.90
2017-09-20T19:15:38.667Z,9.90
2017-09-20T19:18:07.392Z,9.80
2017-09-20T19:20:35.002Z,9.70
2017-09-20T19:23:03.359Z,9.50
2017-09-20T19:25:30.976Z,9.50
2017-09-20T19:27:58.622Z,9.40
2017-09-20T19:30:26.248Z,9.30
2017-09-20T19:32:53.830Z,9.30
2017-09-20T19:35:21.524Z,9.20
2017-09-20T19:37:49.449Z,9.20
2017-09-20T19:40:17.004Z,9.10
2017-09-20T19:42:44.619Z,9.10
2017-09-20T19:45:12.249Z,9.00
2017-09-20T19:47:39.874Z,9.00
2017-09-20T19:50:07.959Z,8.90
2017-09-20T19:52:36.388Z,8.90
2017-09-20T19:55:03.975Z,8.80
2017-09-20T19:57:31.955Z,8.90
2017-09-20T19:59:59.605Z,8.80
2017-09-20T20:02:27.185Z,8.80
2017-09-20T20:04:54.928Z,8.80
2017-09-20T20:07:23.492Z,8.70
2017-09-20T20:09:51.751Z,8.60
2017-09-20T20:12:19.369Z,8.60
2017-09-20T20:14:47.817Z,8.60
2017-09-20T20:17:15.433Z,8.60
2017-09-20T20:19:43.062Z,8.70
2017-09-20T20:22:11.758Z,8.60
2017-09-20T20:24:40.149Z,8.60
2017-09-20T20:27:08.582Z,8.60
2017-09-20T20:29:36.203Z,8.60
2017-09-20T20:32:03.795Z,8.50
2017-09-20T20:34:31.408Z,8.40
2017-09-20T20:36:59.852Z,8.40
2017-09-20T20:39:27.539Z,8.40
2017-09-20T20:41:55.998Z,8.40
2017-09-20T20:44:23.811Z,8.40
2017-09-20T20:46:51.818Z,8.30
2017-09-20T20:49:19.408Z,8.20
2017-09-20T20:51:47.774Z,8.00
2017-09-20T20:54:15.386Z,8.00
2017-09-20T20:56:42.945Z,8.00
2017-09-20T20:59:10.583Z,8.00
2017-09-20T21:01:38.962Z,8.00
2017-09-20T21:04:07.162Z,8.00
2017-09-20T21:06:34.803Z,8.00
2017-09-20T21:09:02.406Z,8.00
2017-09-20T21:11:30.067Z,8.00
2017-09-20T21:13:57.655Z,7.90
2017-09-20T21:16:25.262Z,7.80
2017-09-20T21:18:52.863Z,7.80
2017-09-20T21:21:20.883Z,7.70
2017-09-20T21:23:48.507Z,7.70
2017-09-20T21:26:16.114Z,7.70
2017-09-20T21:28:43.739Z,7.80
2017-09-20T21:31:12.093Z,7.80
2017-09-20T21:33:39.715Z,7.80
2017-09-20T21:36:07.323Z,7.80
2017-09-20T21:38:35.257Z,7.80
2017-09-20T21:41:02.889Z,7.70
2017-09-20T21:43:30.481Z,7.70
2017-09-20T21:45:58.114Z,7.70
2017-09-20T21:48:25.704Z,7.60
2017-09-20T21:50:53.329Z,7.70
2017-09-20T21:53:20.920Z,7.60
2017-09-20T21:55:48.791Z,7.60
2017-09-20T21:58:16.393Z,7.60
2017-09-20T22:00:44.733Z,7.50
2017-09-20T22:03:12.385Z,7.50
2017-09-20T22:05:39.953Z,7.40
2017-09-20T22:08:07.610Z,7.40
2017-09-20T22:10:35.364Z,7.40
2017-09-20T22:13:03.239Z,7.30
2017-09-20T22:15:44.648Z,7.40
2017-09-20T22:18:24.404Z,7.40
2017-09-20T22:21:04.455Z,7.30
2017-09-20T22:23:44.588Z,7.30
2017-09-20T22:26:24.053Z,7.20
2017-09-20T22:28:52.453Z,7.20
2017-09-20T22:31:20.084Z,7.20
2017-09-20T22:33:48.807Z,7.10
2017-09-20T22:36:16.383Z,7.10
2017-09-20T22:38:43.994Z,7.10
2017-09-20T22:41:12.357Z,7.10
2017-09-20T22:43:39.967Z,7.00
2017-09-20T22:46:07.865Z,7.10
2017-09-20T22:48:35.454Z,7.10
2017-09-20T22:51:03.029Z,7.10
2017-09-20T22:53:31.366Z,7.10
2017-09-20T22:55:58.952Z,7.10
2017-09-20T22:58:27.324Z,7.00
2017-09-20T23:00:54.881Z,7.00
2017-09-20T23:03:22.825Z,7.00
2017-09-20T23:05:50.445Z,6.90
2017-09-20T23:08:18.017Z,6.80
2017-09-20T23:10:45.585Z,6.80
2017-09-20T23:13:13.165Z,6.80
2017-09-20T23:15:41.346Z,6.80
2017-09-20T23:18:08.913Z,6.70
2017-09-20T23:20:36.872Z,6.70
2017-09-20T23:23:04.466Z,6.60
2017-09-20T23:25:32.806Z,6.70
2017-09-20T23:28:00.481Z,6.60
2017-09-20T23:30:28.053Z,6.60
2017-09-20T23:32:55.914Z,6.50
2017-09-20T23:35:23.494Z,6.50
2017-09-20T23:37:52.314Z,6.50
2017-09-20T23:40:19.922Z,6.40
2017-09-20T23:42:47.537Z,6.50
2017-09-20T23:45:15.142Z,6.40
2017-09-20T23:47:42.740Z,6.40
2017-09-20T23:50:10.824Z,6.40
2017-09-20T23:52:38.416Z,6.30
2017-09-20T23:55:06.348Z,6.30
2017-09-20T23:57:33.930Z,6.20
